sensor_id;sensor_type;location;lat;lon;timestamp;temperature;humidity
13856;DHT22;6998;53.608;9.958;2022-08-07T00:01:50;12.80;99.90
13856;DHT22;6998;53.608;9.958;2022-08-07T00:04:16;12.80;99.90
13856;DHT22;6998;53.608;9.958;2022-08-07T00:06:44;12.70;99.90
13856;DHT22;6998;53.608;9.958;2022-08-07T00:09:11;12.70;99.90
13856;DHT22;6998;53.608;9.958;2022-08-07T00:11:38;12.70;99.90
13856;DHT22;6998;53.608;9.958;2022-08-07T00:14:05;12.70;99.90
13856;DHT22;6998;53.608;9.958;2022-08-07T00:16:32;12.60;99.90
13856;DHT22;6998;53.608;9.958;2022-08-07T00:18:58;12.60;99.90
13856;DHT22;6998;53.608;9.958;2022-08-07T00:21:25;12.60;99.90
13856;DHT22;6998;53.608;9.958;2022-08-07T00:23:53;12.50;99.90
13856;DHT22;6998;53.608;9.958;2022-08-07T00:26:20;12.50;99.90
13856;DHT22;6998;53.608;9.958;2022-08-07T00:28:47;12.50;99.90
13856;DHT22;6998;53.608;9.958;2022-08-07T00:31:13;12.50;99.90
13856;DHT22;6998;53.608;9.958;2022-08-07T00:33:40;12.40;99.90
13856;DHT22;6998;53.608;9.958;2022-08-07T00:36:07;12.40;99.90
13856;DHT22;6998;53.608;9.958;2022-08-07T00:38:35;12.40;99.90
13856;DHT22;6998;53.608;9.958;2022-08-07T00:41:04;12.40;99.90
13856;DHT22;6998;53.608;9.958;2022-08-07T00:43:31;12.30;99.90
13856;DHT22;6998;53.608;9.958;2022-08-07T00:45:58;12.30;99.90
13856;DHT22;6998;53.608;9.958;2022-08-07T00:48:25;12.30;99.90
13856;DHT22;6998;53.608;9.958;2022-08-07T00:50:52;12.30;99.90
13856;DHT22;6998;53.608;9.958;2022-08-07T00:53:20;12.20;99.90
13856;DHT22;6998;53.608;9.958;2022-08-07T00:55:47;12.20;99.90
13856;DHT22;6998;53.608;9.958;2022-08-07T00:58:18;12.20;99.90
13856;DHT22;6998;53.608;9.958;2022-08-07T01:00:44;12.20;99.90
13856;DHT22;6998;53.608;9.958;2022-08-07T01:03:11;12.20;99.90
13856;DHT22;6998;53.608;9.958;2022-08-07T01:05:39;12.20;99.90
13856;DHT22;6998;53.608;9.958;2022-08-07T01:08:06;12.20;99.90
13856;DHT22;6998;53.608;9.958;2022-08-07T01:10:33;12.20;99.90
13856;DHT22;6998;53.608;9.958;2022-08-07T01:13:00;12.10;99.90
13856;DHT22;6998;53.608;9.958;2022-08-07T01:15:28;12.10;99.90
13856;DHT22;6998;53.608;9.958;2022-08-07T01:17:57;12.00;99.90
13856;DHT22;6998;53.608;9.958;2022-08-07T01:20:30;12.00;99.90
13856;DHT22;6998;53.608;9.958;2022-08-07T01:23:00;12.00;99.90
13856;DHT22;6998;53.608;9.958;2022-08-07T01:25:28;12.00;99.90
13856;DHT22;6998;53.608;9.958;2022-08-07T01:27:54;11.90;99.90
13856;DHT22;6998;53.608;9.958;2022-08-07T01:30:22;11.90;99.90
13856;DHT22;6998;53.608;9.958;2022-08-07T01:32:50;11.90;99.90
13856;DHT22;6998;53.608;9.958;2022-08-07T01:35:17;11.90;99.90
13856;DHT22;6998;53.608;9.958;2022-08-07T01:37:44;11.90;99.90
13856;DHT22;6998;53.608;9.958;2022-08-07T01:40:13;11.80;99.90
13856;DHT22;6998;53.608;9.958;2022-08-07T01:42:40;11.80;99.90
13856;DHT22;6998;53.608;9.958;2022-08-07T01:45:07;11.80;99.90
13856;DHT22;6998;53.608;9.958;2022-08-07T01:47:35;11.80;99.90
13856;DHT22;6998;53.608;9.958;2022-08-07T01:50:02;11.80;99.90
13856;DHT22;6998;53.608;9.958;2022-08-07T01:52:30;11.80;99.90
13856;DHT22;6998;53.608;9.958;2022-08-07T01:54:59;11.70;99.90
13856;DHT22;6998;53.608;9.958;2022-08-07T01:57:31;11.60;99.90
13856;DHT22;6998;53.608;9.958;2022-08-07T02:00:03;11.60;99.90
13856;DHT22;6998;53.608;9.958;2022-08-07T02:02:34;11.60;99.90
13856;DHT22;6998;53.608;9.958;2022-08-07T02:05:04;11.60;99.90
13856;DHT22;6998;53.608;9.958;2022-08-07T02:07:34;11.60;99.90
13856;DHT22;6998;53.608;9.958;2022-08-07T02:10:03;11.60;99.90
13856;DHT22;6998;53.608;9.958;2022-08-07T02:12:35;11.60;99.90
13856;DHT22;6998;53.608;9.958;2022-08-07T02:15:03;11.60;99.90
13856;DHT22;6998;53.608;9.958;2022-08-07T02:17:31;11.60;99.90
13856;DHT22;6998;53.608;9.958;2022-08-07T02:20:01;11.60;99.90
13856;DHT22;6998;53.608;9.958;2022-08-07T02:22:29;11.50;99.90
13856;DHT22;6998;53.608;9.958;2022-08-07T02:24:58;11.50;99.90
13856;DHT22;6998;53.608;9.958;2022-08-07T02:27:27;11.50;99.90
13856;DHT22;6998;53.608;9.958;2022-08-07T02:29:56;11.50;99.90
13856;DHT22;6998;53.608;9.958;2022-08-07T02:32:24;11.50;99.90
13856;DHT22;6998;53.608;9.958;2022-08-07T02:34:53;11.50;99.90
13856;DHT22;6998;53.608;9.958;2022-08-07T02:37:22;11.50;99.90
13856;DHT22;6998;53.608;9.958;2022-08-07T02:39:51;11.50;99.90
13856;DHT22;6998;53.608;9.958;2022-08-07T02:42:19;11.40;99.90
13856;DHT22;6998;53.608;9.958;2022-08-07T02:44:49;11.40;99.90
13856;DHT22;6998;53.608;9.958;2022-08-07T02:47:17;11.40;99.90
13856;DHT22;6998;53.608;9.958;2022-08-07T02:49:44;11.30;99.90
13856;DHT22;6998;53.608;9.958;2022-08-07T02:52:16;11.30;99.90
13856;DHT22;6998;53.608;9.958;2022-08-07T02:54:45;11.30;99.90
13856;DHT22;6998;53.608;9.958;2022-08-07T02:57:15;11.30;99.90
13856;DHT22;6998;53.608;9.958;2022-08-07T02:59:47;11.30;99.90
13856;DHT22;6998;53.608;9.958;2022-08-07T03:02:16;11.30;99.90
13856;DHT22;6998;53.608;9.958;2022-08-07T03:04:44;11.20;99.90
13856;DHT22;6998;53.608;9.958;2022-08-07T03:07:12;11.20;99.90
13856;DHT22;6998;53.608;9.958;2022-08-07T03:09:40;11.20;99.90
13856;DHT22;6998;53.608;9.958;2022-08-07T03:12:08;11.20;99.90
13856;DHT22;6998;53.608;9.958;2022-08-07T03:14:36;11.20;99.90
13856;DHT22;6998;53.608;9.958;2022-08-07T03:17:05;11.10;99.90
13856;DHT22;6998;53.608;9.958;2022-08-07T03:19:33;11.10;99.90
13856;DHT22;6998;53.608;9.958;2022-08-07T03:22:02;11.10;99.90
13856;DHT22;6998;53.608;9.958;2022-08-07T03:24:30;11.10;99.90
13856;DHT22;6998;53.608;9.958;2022-08-07T03:26:59;11.10;99.90
13856;DHT22;6998;53.608;9.958;2022-08-07T03:29:30;11.00;99.90
13856;DHT22;6998;53.608;9.958;2022-08-07T03:31:59;11.00;99.90
13856;DHT22;6998;53.608;9.958;2022-08-07T03:34:26;11.00;99.90
13856;DHT22;6998;53.608;9.958;2022-08-07T03:36:56;11.00;99.90
13856;DHT22;6998;53.608;9.958;2022-08-07T03:39:25;10.90;99.90
13856;DHT22;6998;53.608;9.958;2022-08-07T03:41:52;10.90;99.90
13856;DHT22;6998;53.608;9.958;2022-08-07T03:44:20;10.90;99.90
13856;DHT22;6998;53.608;9.958;2022-08-07T03:46:47;10.90;99.90
13856;DHT22;6998;53.608;9.958;2022-08-07T03:49:14;10.90;99.90
13856;DHT22;6998;53.608;9.958;2022-08-07T03:51:41;10.80;99.90
13856;DHT22;6998;53.608;9.958;2022-08-07T03:54:10;10.90;99.90
13856;DHT22;6998;53.608;9.958;2022-08-07T03:56:38;10.90;99.90
13856;DHT22;6998;53.608;9.958;2022-08-07T03:59:06;10.80;99.90
13856;DHT22;6998;53.608;9.958;2022-08-07T04:01:33;10.80;99.90
13856;DHT22;6998;53.608;9.958;2022-08-07T04:04:01;10.80;99.90
13856;DHT22;6998;53.608;9.958;2022-08-07T04:06:28;10.90;99.90
13856;DHT22;6998;53.608;9.958;2022-08-07T04:08:55;10.90;99.90
13856;DHT22;6998;53.608;9.958;2022-08-07T04:11:23;10.90;99.90
13856;DHT22;6998;53.608;9.958;2022-08-07T04:13:50;10.90;99.90
13856;DHT22;6998;53.608;9.958;2022-08-07T04:16:18;10.80;99.90
13856;DHT22;6998;53.608;9.958;2022-08-07T04:18:45;10.90;99.90
13856;DHT22;6998;53.608;9.958;2022-08-07T04:21:12;10.90;99.90
13856;DHT22;6998;53.608;9.958;2022-08-07T04:23:39;10.90;99.90
13856;DHT22;6998;53.608;9.958;2022-08-07T04:26:06;10.90;99.90
13856;DHT22;6998;53.608;9.958;2022-08-07T04:28:34;10.90;99.90
13856;DHT22;6998;53.608;9.958;2022-08-07T04:31:01;10.90;99.90
13856;DHT22;6998;53.608;9.958;2022-08-07T04:33:28;10.90;99.90
13856;DHT22;6998;53.608;9.958;2022-08-07T04:35:56;10.90;99.90
13856;DHT22;6998;53.608;9.958;2022-08-07T04:38:24;10.90;99.90
13856;DHT22;6998;53.608;9.958;2022-08-07T04:40:51;10.90;99.90
13856;DHT22;6998;53.608;9.958;2022-08-07T04:43:20;10.90;99.90
13856;DHT22;6998;53.608;9.958;2022-08-07T04:45:54;11.00;99.90
13856;DHT22;6998;53.608;9.958;2022-08-07T04:48:29;11.00;99.90
13856;DHT22;6998;53.608;9.958;2022-08-07T04:51:03;11.00;99.90
13856;DHT22;6998;53.608;9.958;2022-08-07T04:53:36;11.10;99.90
13856;DHT22;6998;53.608;9.958;2022-08-07T04:56:13;11.10;99.90
13856;DHT22;6998;53.608;9.958;2022-08-07T04:58:47;11.10;99.90
13856;DHT22;6998;53.608;9.958;2022-08-07T05:01:20;11.20;99.90
13856;DHT22;6998;53.608;9.958;2022-08-07T05:03:54;11.20;99.90
13856;DHT22;6998;53.608;9.958;2022-08-07T05:06:31;11.20;99.90
13856;DHT22;6998;53.608;9.958;2022-08-07T05:09:02;11.30;99.90
13856;DHT22;6998;53.608;9.958;2022-08-07T05:11:31;11.30;99.90
13856;DHT22;6998;53.608;9.958;2022-08-07T05:14:03;11.30;99.90
13856;DHT22;6998;53.608;9.958;2022-08-07T05:16:34;11.40;99.90
13856;DHT22;6998;53.608;9.958;2022-08-07T05:19:06;11.50;99.90
13856;DHT22;6998;53.608;9.958;2022-08-07T05:21:34;11.60;99.90
13856;DHT22;6998;53.608;9.958;2022-08-07T05:24:02;11.60;99.90
13856;DHT22;6998;53.608;9.958;2022-08-07T05:26:32;11.70;99.90
13856;DHT22;6998;53.608;9.958;2022-08-07T05:29:00;11.70;99.90
13856;DHT22;6998;53.608;9.958;2022-08-07T05:31:31;11.80;99.90
13856;DHT22;6998;53.608;9.958;2022-08-07T05:34:00;11.90;99.90
13856;DHT22;6998;53.608;9.958;2022-08-07T05:36:28;11.90;99.90
13856;DHT22;6998;53.608;9.958;2022-08-07T05:38:56;12.00;99.90
13856;DHT22;6998;53.608;9.958;2022-08-07T05:41:23;12.00;99.90
13856;DHT22;6998;53.608;9.958;2022-08-07T05:43:53;12.10;99.90
13856;DHT22;6998;53.608;9.958;2022-08-07T05:46:21;12.10;99.90
13856;DHT22;6998;53.608;9.958;2022-08-07T05:48:49;12.20;99.90
13856;DHT22;6998;53.608;9.958;2022-08-07T05:51:18;12.30;99.90
13856;DHT22;6998;53.608;9.958;2022-08-07T05:53:47;12.40;99.90
13856;DHT22;6998;53.608;9.958;2022-08-07T05:56:15;12.50;99.90
13856;DHT22;6998;53.608;9.958;2022-08-07T05:58:43;12.60;99.90
13856;DHT22;6998;53.608;9.958;2022-08-07T06:01:13;12.70;99.90
13856;DHT22;6998;53.608;9.958;2022-08-07T06:03:45;12.80;99.90
13856;DHT22;6998;53.608;9.958;2022-08-07T06:06:13;13.00;99.90
13856;DHT22;6998;53.608;9.958;2022-08-07T06:08:42;13.20;99.90
13856;DHT22;6998;53.608;9.958;2022-08-07T06:11:10;13.20;99.90
13856;DHT22;6998;53.608;9.958;2022-08-07T06:13:38;13.40;99.90
13856;DHT22;6998;53.608;9.958;2022-08-07T06:16:06;13.50;99.90
13856;DHT22;6998;53.608;9.958;2022-08-07T06:18:33;13.70;99.90
13856;DHT22;6998;53.608;9.958;2022-08-07T06:21:02;13.80;99.90
13856;DHT22;6998;53.608;9.958;2022-08-07T06:23:29;14.00;99.90
13856;DHT22;6998;53.608;9.958;2022-08-07T06:25:58;14.10;99.90
13856;DHT22;6998;53.608;9.958;2022-08-07T06:28:25;14.20;99.90
13856;DHT22;6998;53.608;9.958;2022-08-07T06:30:52;14.20;99.90
13856;DHT22;6998;53.608;9.958;2022-08-07T06:33:19;14.30;99.90
13856;DHT22;6998;53.608;9.958;2022-08-07T06:35:46;14.50;99.90
13856;DHT22;6998;53.608;9.958;2022-08-07T06:38:13;14.60;99.90
13856;DHT22;6998;53.608;9.958;2022-08-07T06:40:44;14.70;99.90
13856;DHT22;6998;53.608;9.958;2022-08-07T06:43:15;14.80;99.90
13856;DHT22;6998;53.608;9.958;2022-08-07T06:45:44;15.10;99.90
13856;DHT22;6998;53.608;9.958;2022-08-07T06:48:11;15.20;99.90
13856;DHT22;6998;53.608;9.958;2022-08-07T06:50:39;15.30;99.90
13856;DHT22;6998;53.608;9.958;2022-08-07T06:53:07;15.40;99.90
13856;DHT22;6998;53.608;9.958;2022-08-07T06:55:36;15.50;99.90
13856;DHT22;6998;53.608;9.958;2022-08-07T06:58:06;15.50;99.90
13856;DHT22;6998;53.608;9.958;2022-08-07T07:00:36;15.50;99.90
13856;DHT22;6998;53.608;9.958;2022-08-07T07:03:04;15.70;99.90
13856;DHT22;6998;53.608;9.958;2022-08-07T07:05:31;15.80;99.90
13856;DHT22;6998;53.608;9.958;2022-08-07T07:07:58;16.00;99.90
13856;DHT22;6998;53.608;9.958;2022-08-07T07:10:27;16.10;99.90
13856;DHT22;6998;53.608;9.958;2022-08-07T07:12:57;16.30;99.90
13856;DHT22;6998;53.608;9.958;2022-08-07T07:15:27;16.40;99.90
13856;DHT22;6998;53.608;9.958;2022-08-07T07:18:01;16.40;99.90
13856;DHT22;6998;53.608;9.958;2022-08-07T07:20:33;16.50;99.90
13856;DHT22;6998;53.608;9.958;2022-08-07T07:23:01;16.70;99.90
13856;DHT22;6998;53.608;9.958;2022-08-07T07:25:28;16.90;99.90
13856;DHT22;6998;53.608;9.958;2022-08-07T07:27:59;17.00;99.90
13856;DHT22;6998;53.608;9.958;2022-08-07T07:30:31;17.10;99.90
13856;DHT22;6998;53.608;9.958;2022-08-07T07:33:01;17.20;99.90
13856;DHT22;6998;53.608;9.958;2022-08-07T07:35:29;17.30;99.90
13856;DHT22;6998;53.608;9.958;2022-08-07T07:37:59;17.40;99.90
13856;DHT22;6998;53.608;9.958;2022-08-07T07:40:30;17.60;99.90
13856;DHT22;6998;53.608;9.958;2022-08-07T07:42:59;17.70;99.90
13856;DHT22;6998;53.608;9.958;2022-08-07T07:45:29;17.90;99.90
13856;DHT22;6998;53.608;9.958;2022-08-07T07:47:57;18.00;99.90
13856;DHT22;6998;53.608;9.958;2022-08-07T07:50:28;18.10;99.90
13856;DHT22;6998;53.608;9.958;2022-08-07T07:52:56;18.30;99.90
13856;DHT22;6998;53.608;9.958;2022-08-07T07:55:24;18.40;99.90
13856;DHT22;6998;53.608;9.958;2022-08-07T07:57:51;18.70;99.90
13856;DHT22;6998;53.608;9.958;2022-08-07T08:00:21;18.80;99.90
13856;DHT22;6998;53.608;9.958;2022-08-07T08:02:50;19.00;99.90
13856;DHT22;6998;53.608;9.958;2022-08-07T08:05:20;19.10;99.90
13856;DHT22;6998;53.608;9.958;2022-08-07T08:07:49;19.10;99.90
13856;DHT22;6998;53.608;9.958;2022-08-07T08:10:16;19.10;99.90
13856;DHT22;6998;53.608;9.958;2022-08-07T08:12:45;19.20;99.90
13856;DHT22;6998;53.608;9.958;2022-08-07T08:15:13;19.20;99.90
13856;DHT22;6998;53.608;9.958;2022-08-07T08:17:40;19.30;99.90
13856;DHT22;6998;53.608;9.958;2022-08-07T08:20:09;19.40;99.90
13856;DHT22;6998;53.608;9.958;2022-08-07T08:22:38;19.50;99.90
13856;DHT22;6998;53.608;9.958;2022-08-07T08:25:25;19.70;99.90
13856;DHT22;6998;53.608;9.958;2022-08-07T08:28:16;19.80;99.90
13856;DHT22;6998;53.608;9.958;2022-08-07T08:30:44;19.90;99.90
13856;DHT22;6998;53.608;9.958;2022-08-07T08:33:12;20.10;99.90
13856;DHT22;6998;53.608;9.958;2022-08-07T08:35:45;20.30;99.90
13856;DHT22;6998;53.608;9.958;2022-08-07T08:38:14;20.20;99.90
13856;DHT22;6998;53.608;9.958;2022-08-07T08:40:47;20.10;99.90
13856;DHT22;6998;53.608;9.958;2022-08-07T08:43:26;20.30;99.90
13856;DHT22;6998;53.608;9.958;2022-08-07T08:46:00;20.30;99.90
13856;DHT22;6998;53.608;9.958;2022-08-07T08:48:36;20.40;99.90
13856;DHT22;6998;53.608;9.958;2022-08-07T08:51:07;20.50;99.90
13856;DHT22;6998;53.608;9.958;2022-08-07T08:53:43;20.60;99.90
13856;DHT22;6998;53.608;9.958;2022-08-07T08:56:15;20.80;99.90
13856;DHT22;6998;53.608;9.958;2022-08-07T08:58:51;20.90;99.90
13856;DHT22;6998;53.608;9.958;2022-08-07T09:01:22;20.90;99.90
13856;DHT22;6998;53.608;9.958;2022-08-07T09:03:56;20.90;99.90
13856;DHT22;6998;53.608;9.958;2022-08-07T09:06:39;20.90;99.90
13856;DHT22;6998;53.608;9.958;2022-08-07T09:09:20;21.10;99.90
13856;DHT22;6998;53.608;9.958;2022-08-07T09:12:00;21.20;99.90
13856;DHT22;6998;53.608;9.958;2022-08-07T09:14:34;21.40;99.90
13856;DHT22;6998;53.608;9.958;2022-08-07T09:17:11;21.60;99.90
13856;DHT22;6998;53.608;9.958;2022-08-07T09:19:48;21.80;99.90
13856;DHT22;6998;53.608;9.958;2022-08-07T09:22:33;21.80;99.90
13856;DHT22;6998;53.608;9.958;2022-08-07T09:25:09;21.90;99.90
13856;DHT22;6998;53.608;9.958;2022-08-07T09:27:42;21.90;99.90
13856;DHT22;6998;53.608;9.958;2022-08-07T09:30:11;22.00;99.90
13856;DHT22;6998;53.608;9.958;2022-08-07T09:32:51;22.00;99.90
13856;DHT22;6998;53.608;9.958;2022-08-07T09:35:27;22.00;99.90
13856;DHT22;6998;53.608;9.958;2022-08-07T09:38:05;22.10;99.90
13856;DHT22;6998;53.608;9.958;2022-08-07T09:40:45;22.40;99.90
13856;DHT22;6998;53.608;9.958;2022-08-07T09:43:24;22.40;99.90
13856;DHT22;6998;53.608;9.958;2022-08-07T09:45:58;22.50;99.90
13856;DHT22;6998;53.608;9.958;2022-08-07T09:48:35;22.60;99.90
13856;DHT22;6998;53.608;9.958;2022-08-07T09:51:15;22.60;99.90
13856;DHT22;6998;53.608;9.958;2022-08-07T09:53:50;22.70;99.90
13856;DHT22;6998;53.608;9.958;2022-08-07T09:56:45;22.80;99.90
13856;DHT22;6998;53.608;9.958;2022-08-07T09:59:39;22.80;99.90
13856;DHT22;6998;53.608;9.958;2022-08-07T10:02:24;22.90;99.90
13856;DHT22;6998;53.608;9.958;2022-08-07T10:08:08;23.10;99.90
13856;DHT22;6998;53.608;9.958;2022-08-07T10:10:47;23.50;99.90
13856;DHT22;6998;53.608;9.958;2022-08-07T10:13:43;23.70;99.90
13856;DHT22;6998;53.608;9.958;2022-08-07T10:16:27;23.70;99.90
13856;DHT22;6998;53.608;9.958;2022-08-07T10:19:18;23.50;99.90
13856;DHT22;6998;53.608;9.958;2022-08-07T10:21:56;23.30;99.90
13856;DHT22;6998;53.608;9.958;2022-08-07T10:24:38;23.30;99.90
13856;DHT22;6998;53.608;9.958;2022-08-07T10:27:19;23.30;99.90
13856;DHT22;6998;53.608;9.958;2022-08-07T10:29:58;23.00;99.90
13856;DHT22;6998;53.608;9.958;2022-08-07T10:32:47;22.90;99.90
13856;DHT22;6998;53.608;9.958;2022-08-07T10:35:26;22.80;99.90
13856;DHT22;6998;53.608;9.958;2022-08-07T10:38:05;22.70;99.90
13856;DHT22;6998;53.608;9.958;2022-08-07T10:40:42;22.60;99.90
13856;DHT22;6998;53.608;9.958;2022-08-07T10:43:14;22.50;99.90
13856;DHT22;6998;53.608;9.958;2022-08-07T10:45:46;22.50;99.90
13856;DHT22;6998;53.608;9.958;2022-08-07T10:48:23;22.80;99.90
13856;DHT22;6998;53.608;9.958;2022-08-07T10:50:54;22.70;99.90
13856;DHT22;6998;53.608;9.958;2022-08-07T10:53:27;23.10;99.90
13856;DHT22;6998;53.608;9.958;2022-08-07T10:56:02;23.40;99.90
13856;DHT22;6998;53.608;9.958;2022-08-07T10:58:51;23.20;99.90
13856;DHT22;6998;53.608;9.958;2022-08-07T11:01:28;23.30;99.90
13856;DHT22;6998;53.608;9.958;2022-08-07T11:04:03;23.60;99.90
13856;DHT22;6998;53.608;9.958;2022-08-07T11:06:39;23.90;99.90
13856;DHT22;6998;53.608;9.958;2022-08-07T11:09:12;23.90;99.90
13856;DHT22;6998;53.608;9.958;2022-08-07T11:11:46;23.80;99.90
13856;DHT22;6998;53.608;9.958;2022-08-07T11:14:19;23.80;99.90
13856;DHT22;6998;53.608;9.958;2022-08-07T11:16:53;23.70;99.90
13856;DHT22;6998;53.608;9.958;2022-08-07T11:19:35;23.70;99.90
13856;DHT22;6998;53.608;9.958;2022-08-07T11:22:08;23.50;99.90
13856;DHT22;6998;53.608;9.958;2022-08-07T11:24:43;23.40;99.90
13856;DHT22;6998;53.608;9.958;2022-08-07T11:27:17;23.40;99.90
13856;DHT22;6998;53.608;9.958;2022-08-07T11:29:51;23.40;99.90
13856;DHT22;6998;53.608;9.958;2022-08-07T11:32:27;23.60;99.90
13856;DHT22;6998;53.608;9.958;2022-08-07T11:34:58;24.00;99.90
13856;DHT22;6998;53.608;9.958;2022-08-07T11:40:28;24.40;99.90
13856;DHT22;6998;53.608;9.958;2022-08-07T11:43:03;24.90;99.90
13856;DHT22;6998;53.608;9.958;2022-08-07T11:45:40;24.90;99.90
13856;DHT22;6998;53.608;9.958;2022-08-07T11:48:26;24.60;99.90
13856;DHT22;6998;53.608;9.958;2022-08-07T11:51:15;24.30;99.90
13856;DHT22;6998;53.608;9.958;2022-08-07T11:53:51;24.20;99.90
13856;DHT22;6998;53.608;9.958;2022-08-07T11:56:32;24.00;99.90
13856;DHT22;6998;53.608;9.958;2022-08-07T11:59:12;24.00;99.90
13856;DHT22;6998;53.608;9.958;2022-08-07T12:01:55;24.20;99.90
13856;DHT22;6998;53.608;9.958;2022-08-07T12:04:56;24.50;99.90
13856;DHT22;6998;53.608;9.958;2022-08-07T12:07:33;24.90;99.90
13856;DHT22;6998;53.608;9.958;2022-08-07T12:10:04;25.10;99.90
13856;DHT22;6998;53.608;9.958;2022-08-07T12:12:36;25.00;99.90
13856;DHT22;6998;53.608;9.958;2022-08-07T12:15:12;24.90;99.90
13856;DHT22;6998;53.608;9.958;2022-08-07T12:17:45;24.90;99.90
13856;DHT22;6998;53.608;9.958;2022-08-07T12:20:21;24.90;99.90
13856;DHT22;6998;53.608;9.958;2022-08-07T12:23:24;24.80;99.90
13856;DHT22;6998;53.608;9.958;2022-08-07T12:25:59;24.70;99.90
13856;DHT22;6998;53.608;9.958;2022-08-07T12:28:30;24.90;99.90
13856;DHT22;6998;53.608;9.958;2022-08-07T12:31:04;25.10;99.90
13856;DHT22;6998;53.608;9.958;2022-08-07T12:33:32;25.40;99.90
13856;DHT22;6998;53.608;9.958;2022-08-07T12:36:03;25.50;99.90
13856;DHT22;6998;53.608;9.958;2022-08-07T12:38:34;25.60;99.00
13856;DHT22;6998;53.608;9.958;2022-08-07T12:41:02;25.70;99.30
13856;DHT22;6998;53.608;9.958;2022-08-07T12:43:32;25.80;98.70
13856;DHT22;6998;53.608;9.958;2022-08-07T12:46:08;25.80;99.40
13856;DHT22;6998;53.608;9.958;2022-08-07T12:48:49;25.80;99.70
13856;DHT22;6998;53.608;9.958;2022-08-07T12:51:23;25.60;98.90
13856;DHT22;6998;53.608;9.958;2022-08-07T12:53:59;25.60;98.70
13856;DHT22;6998;53.608;9.958;2022-08-07T12:56:30;25.40;98.50
13856;DHT22;6998;53.608;9.958;2022-08-07T12:59:02;25.30;99.50
13856;DHT22;6998;53.608;9.958;2022-08-07T13:01:41;25.30;99.90
13856;DHT22;6998;53.608;9.958;2022-08-07T13:04:43;25.20;98.80
13856;DHT22;6998;53.608;9.958;2022-08-07T13:07:47;25.10;99.20
13856;DHT22;6998;53.608;9.958;2022-08-07T13:10:31;25.00;99.50
13856;DHT22;6998;53.608;9.958;2022-08-07T13:13:13;24.80;98.90
13856;DHT22;6998;53.608;9.958;2022-08-07T13:15:52;24.50;99.90
13856;DHT22;6998;53.608;9.958;2022-08-07T13:18:29;24.50;99.90
13856;DHT22;6998;53.608;9.958;2022-08-07T13:21:01;24.40;99.90
13856;DHT22;6998;53.608;9.958;2022-08-07T13:23:37;24.40;99.90
13856;DHT22;6998;53.608;9.958;2022-08-07T13:26:12;24.70;99.90
13856;DHT22;6998;53.608;9.958;2022-08-07T13:28:44;24.90;99.90
13856;DHT22;6998;53.608;9.958;2022-08-07T13:31:18;24.90;99.60
13856;DHT22;6998;53.608;9.958;2022-08-07T13:33:49;24.90;99.90
13856;DHT22;6998;53.608;9.958;2022-08-07T13:36:23;24.80;99.90
13856;DHT22;6998;53.608;9.958;2022-08-07T13:38:58;24.90;99.70
13856;DHT22;6998;53.608;9.958;2022-08-07T13:41:33;24.70;99.70
13856;DHT22;6998;53.608;9.958;2022-08-07T13:44:05;24.70;99.60
13856;DHT22;6998;53.608;9.958;2022-08-07T13:46:36;24.60;99.50
13856;DHT22;6998;53.608;9.958;2022-08-07T13:49:05;24.60;99.80
13856;DHT22;6998;53.608;9.958;2022-08-07T13:51:33;24.60;99.90
13856;DHT22;6998;53.608;9.958;2022-08-07T13:54:04;24.80;99.90
13856;DHT22;6998;53.608;9.958;2022-08-07T13:56:35;25.20;99.90
13856;DHT22;6998;53.608;9.958;2022-08-07T13:59:02;25.30;99.10
13856;DHT22;6998;53.608;9.958;2022-08-07T14:01:32;25.20;98.10
13856;DHT22;6998;53.608;9.958;2022-08-07T14:04:09;25.30;97.50
13856;DHT22;6998;53.608;9.958;2022-08-07T14:06:39;25.50;98.20
13856;DHT22;6998;53.608;9.958;2022-08-07T14:09:08;25.80;98.40
13856;DHT22;6998;53.608;9.958;2022-08-07T14:11:45;25.90;96.30
13856;DHT22;6998;53.608;9.958;2022-08-07T14:14:14;26.00;96.60
13856;DHT22;6998;53.608;9.958;2022-08-07T14:16:45;26.10;96.00
13856;DHT22;6998;53.608;9.958;2022-08-07T14:19:16;26.20;96.50
13856;DHT22;6998;53.608;9.958;2022-08-07T14:21:47;26.50;97.00
13856;DHT22;6998;53.608;9.958;2022-08-07T14:24:21;26.70;95.80
13856;DHT22;6998;53.608;9.958;2022-08-07T14:26:54;26.80;95.20
13856;DHT22;6998;53.608;9.958;2022-08-07T14:29:24;27.00;95.80
13856;DHT22;6998;53.608;9.958;2022-08-07T14:31:52;27.10;94.20
13856;DHT22;6998;53.608;9.958;2022-08-07T14:34:20;27.20;95.70
13856;DHT22;6998;53.608;9.958;2022-08-07T14:36:49;27.30;95.10
13856;DHT22;6998;53.608;9.958;2022-08-07T14:39:17;27.20;94.90
13856;DHT22;6998;53.608;9.958;2022-08-07T14:41:48;27.40;96.50
13856;DHT22;6998;53.608;9.958;2022-08-07T14:44:18;27.60;94.10
13856;DHT22;6998;53.608;9.958;2022-08-07T14:46:45;27.50;94.60
13856;DHT22;6998;53.608;9.958;2022-08-07T14:49:14;27.20;93.10
13856;DHT22;6998;53.608;9.958;2022-08-07T14:51:53;27.20;94.60
13856;DHT22;6998;53.608;9.958;2022-08-07T14:54:22;27.10;94.20
13856;DHT22;6998;53.608;9.958;2022-08-07T14:56:51;26.90;94.80
13856;DHT22;6998;53.608;9.958;2022-08-07T14:59:21;26.90;95.60
13856;DHT22;6998;53.608;9.958;2022-08-07T15:01:49;26.90;94.50
13856;DHT22;6998;53.608;9.958;2022-08-07T15:04:16;27.00;93.30
13856;DHT22;6998;53.608;9.958;2022-08-07T15:06:47;26.80;93.60
13856;DHT22;6998;53.608;9.958;2022-08-07T15:09:15;27.00;95.20
13856;DHT22;6998;53.608;9.958;2022-08-07T15:11:49;26.80;95.10
13856;DHT22;6998;53.608;9.958;2022-08-07T15:14:22;26.90;95.20
13856;DHT22;6998;53.608;9.958;2022-08-07T15:17:10;26.80;95.10
13856;DHT22;6998;53.608;9.958;2022-08-07T15:19:38;26.70;95.30
13856;DHT22;6998;53.608;9.958;2022-08-07T15:22:14;26.50;95.60
13856;DHT22;6998;53.608;9.958;2022-08-07T15:24:48;26.50;96.50
13856;DHT22;6998;53.608;9.958;2022-08-07T15:27:19;26.50;95.30
13856;DHT22;6998;53.608;9.958;2022-08-07T15:29:51;26.40;95.60
13856;DHT22;6998;53.608;9.958;2022-08-07T15:32:19;26.30;96.00
13856;DHT22;6998;53.608;9.958;2022-08-07T15:34:48;26.60;96.10
13856;DHT22;6998;53.608;9.958;2022-08-07T15:37:18;26.70;95.00
13856;DHT22;6998;53.608;9.958;2022-08-07T15:39:46;26.70;95.10
13856;DHT22;6998;53.608;9.958;2022-08-07T15:42:50;26.60;95.10
13856;DHT22;6998;53.608;9.958;2022-08-07T15:45:43;26.50;95.20
13856;DHT22;6998;53.608;9.958;2022-08-07T15:48:21;26.50;94.50
13856;DHT22;6998;53.608;9.958;2022-08-07T15:50:50;26.50;96.20
13856;DHT22;6998;53.608;9.958;2022-08-07T15:53:24;26.70;96.00
13856;DHT22;6998;53.608;9.958;2022-08-07T15:55:54;26.80;95.80
13856;DHT22;6998;53.608;9.958;2022-08-07T15:58:28;26.80;94.20
13856;DHT22;6998;53.608;9.958;2022-08-07T16:00:59;26.80;95.40
13856;DHT22;6998;53.608;9.958;2022-08-07T16:03:30;26.80;94.70
13856;DHT22;6998;53.608;9.958;2022-08-07T16:05:58;26.80;94.40
13856;DHT22;6998;53.608;9.958;2022-08-07T16:08:26;26.90;95.70
13856;DHT22;6998;53.608;9.958;2022-08-07T16:10:58;26.80;96.10
13856;DHT22;6998;53.608;9.958;2022-08-07T16:19:24;25.90;95.60
13856;DHT22;6998;53.608;9.958;2022-08-07T16:22:01;25.60;95.80
13856;DHT22;6998;53.608;9.958;2022-08-07T16:24:32;25.30;96.10
13856;DHT22;6998;53.608;9.958;2022-08-07T16:27:07;25.30;97.20